createdAt,value
2018-12-29T00:01:27.220Z,4.00
2018-12-29T00:03:59.221Z,4.40
2018-12-29T00:06:31.109Z,4.47
2018-12-29T00:09:03.005Z,4.55
2018-12-29T00:11:34.028Z,4.97
2018-12-29T00:14:05.953Z,4.67
2018-12-29T00:16:37.501Z,4.55
2018-12-29T00:19:08.551Z,5.03
2018-12-29T00:21:39.878Z,4.75
2018-12-29T00:24:11.506Z,5.50
2018-12-29T00:26:43.513Z,4.95
2018-12-29T00:29:15.360Z,5.45
2018-12-29T00:31:46.779Z,4.85
2018-12-29T00:34:18.687Z,5.80
2018-12-29T00:36:50.250Z,5.58
2018-12-29T00:39:23.145Z,5.85
2018-12-29T00:41:54.756Z,7.40
2018-12-29T00:44:25.806Z,7.45
2018-12-29T00:46:57.360Z,6.58
2018-12-29T00:49:29.070Z,5.97
2018-12-29T00:52:00.347Z,4.62
2018-12-29T00:54:31.721Z,4.28
2018-12-29T00:57:03.608Z,3.62
2018-12-29T00:59:35.181Z,3.30
2018-12-29T01:02:07.038Z,2.60
2018-12-29T01:04:38.322Z,3.12
2018-12-29T01:07:09.341Z,3.00
2018-12-29T01:09:42.651Z,3.20
2018-12-29T01:12:14.618Z,3.00
2018-12-29T01:14:45.800Z,3.08
2018-12-29T01:17:17.108Z,2.80
2018-12-29T01:19:48.452Z,2.75
2018-12-29T01:22:19.792Z,3.00
2018-12-29T01:24:51.588Z,2.95
2018-12-29T01:27:23.214Z,2.80
2018-12-29T01:29:54.841Z,2.58
2018-12-29T01:32:26.776Z,2.80
2018-12-29T01:34:58.073Z,3.00
2018-12-29T01:37:29.702Z,3.80
2018-12-29T01:40:01.240Z,3.72
2018-12-29T01:42:33.191Z,4.00
2018-12-29T01:45:05.478Z,4.10
2018-12-29T01:47:37.307Z,4.35
2018-12-29T01:50:09.344Z,4.45
2018-12-29T01:52:40.581Z,4.55
2018-12-29T01:55:11.745Z,4.78
2018-12-29T01:57:43.919Z,4.50
2018-12-29T02:00:15.813Z,4.37
2018-12-29T02:02:47.165Z,4.22
2018-12-29T02:05:18.491Z,4.12
2018-12-29T02:07:49.797Z,4.30
2018-12-29T02:10:21.605Z,4.17
2018-12-29T02:12:52.967Z,4.00
2018-12-29T02:15:24.978Z,4.58
2018-12-29T02:17:56.811Z,4.50
2018-12-29T02:20:28.207Z,4.08
2018-12-29T02:22:59.592Z,4.40
2018-12-29T02:25:30.874Z,4.80
2018-12-29T02:28:02.230Z,5.00
2018-12-29T02:30:33.826Z,4.75
2018-12-29T02:33:05.405Z,5.35
2018-12-29T02:35:37.277Z,5.05
2018-12-29T02:38:08.610Z,4.67
2018-12-29T02:40:40.487Z,4.83
2018-12-29T02:43:12.344Z,4.58
2018-12-29T02:45:44.206Z,6.12
2018-12-29T02:48:15.355Z,4.70
2018-12-29T02:50:47.302Z,4.58
2018-12-29T02:53:18.943Z,4.22
2018-12-29T02:55:50.511Z,4.50
2018-12-29T02:58:22.336Z,4.75
2018-12-29T03:00:54.401Z,4.65
2018-12-29T03:03:26.263Z,4.55
2018-12-29T03:05:58.631Z,4.58
2018-12-29T03:08:30.216Z,4.62
2018-12-29T03:11:02.176Z,4.22
2018-12-29T03:13:33.683Z,4.78
2018-12-29T03:16:05.593Z,4.72
2018-12-29T03:18:37.237Z,4.85
2018-12-29T03:21:09.414Z,4.28
2018-12-29T03:23:41.000Z,3.85
2018-12-29T03:26:12.269Z,4.33
2018-12-29T03:28:44.146Z,3.80
2018-12-29T03:31:16.031Z,3.80
2018-12-29T03:33:47.659Z,4.25
2018-12-29T03:36:20.212Z,4.20
2018-12-29T03:38:52.036Z,3.47
2018-12-29T03:41:23.835Z,4.05
2018-12-29T03:43:55.540Z,3.70
2018-12-29T03:46:27.148Z,4.87
2018-12-29T03:48:58.848Z,4.50
2018-12-29T03:51:30.468Z,4.00
2018-12-29T03:54:02.055Z,4.47
2018-12-29T03:56:33.934Z,4.70
2018-12-29T03:59:05.581Z,4.33
2018-12-29T04:01:36.593Z,4.80
2018-12-29T04:04:08.444Z,4.22
2018-12-29T04:06:40.388Z,4.00
2018-12-29T04:09:36.429Z,3.80
2018-12-29T04:12:20.346Z,3.15
2018-12-29T04:14:51.367Z,4.05
2018-12-29T04:17:22.948Z,3.87
2018-12-29T04:19:54.225Z,3.12
2018-12-29T04:22:25.276Z,3.58
2018-12-29T04:24:57.254Z,3.40
2018-12-29T04:27:29.120Z,4.00
2018-12-29T04:30:00.200Z,4.00
2018-12-29T04:32:31.601Z,3.67
2018-12-29T04:35:03.207Z,3.83
2018-12-29T04:37:34.779Z,3.40
2018-12-29T04:40:06.725Z,3.67
2018-12-29T04:42:38.576Z,4.00
2018-12-29T04:45:10.527Z,4.03
2018-12-29T04:47:42.134Z,4.00
2018-12-29T04:50:13.855Z,3.65
2018-12-29T04:52:45.238Z,4.05
2018-12-29T04:55:17.330Z,3.45
2018-12-29T04:57:49.001Z,3.98
2018-12-29T05:00:20.004Z,4.10
2018-12-29T05:02:52.164Z,3.92
2018-12-29T05:05:23.512Z,3.90
2018-12-29T05:07:55.118Z,4.70
2018-12-29T05:10:27.120Z,5.17
2018-12-29T05:12:59.390Z,5.03
2018-12-29T05:15:31.181Z,4.97
2018-12-29T05:18:02.796Z,5.15
2018-12-29T05:20:34.056Z,5.70
2018-12-29T05:23:05.361Z,4.95
2018-12-29T05:25:36.933Z,5.85
2018-12-29T05:28:08.457Z,5.65
2018-12-29T05:30:40.691Z,5.45
2018-12-29T05:33:12.603Z,5.58
2018-12-29T05:35:44.141Z,5.47
2018-12-29T05:38:15.916Z,6.25
2018-12-29T05:40:47.297Z,6.17
2018-12-29T05:43:18.307Z,5.65
2018-12-29T05:45:50.350Z,5.97
2018-12-29T05:48:21.923Z,6.45
2018-12-29T05:50:53.524Z,4.65
2018-12-29T05:53:24.843Z,4.90
2018-12-29T05:55:56.190Z,4.45
2018-12-29T05:58:27.869Z,4.50
2018-12-29T06:00:59.490Z,5.42
2018-12-29T06:03:31.053Z,5.00
2018-12-29T06:06:02.929Z,4.83
2018-12-29T06:08:34.778Z,4.45
2018-12-29T06:11:06.650Z,4.85
2018-12-29T06:13:39.083Z,4.95
2018-12-29T06:16:11.099Z,5.00
2018-12-29T06:18:42.725Z,4.95
2018-12-29T06:21:14.343Z,4.55
2018-12-29T06:23:46.432Z,4.62
2018-12-29T06:26:18.549Z,3.85
2018-12-29T06:28:50.346Z,4.72
2018-12-29T06:31:22.436Z,4.22
2018-12-29T06:33:53.982Z,4.37
2018-12-29T06:36:25.624Z,3.75
2018-12-29T06:38:58.028Z,3.70
2018-12-29T06:41:29.597Z,3.02
2018-12-29T06:44:00.874Z,2.67
2018-12-29T06:46:35.165Z,3.77
2018-12-29T06:49:07.264Z,3.20
2018-12-29T06:51:39.245Z,3.02
2018-12-29T06:54:11.275Z,2.83
2018-12-29T06:56:43.142Z,2.70
2018-12-29T06:59:14.433Z,2.10
2018-12-29T07:01:46.042Z,2.10
2018-12-29T07:04:17.388Z,1.92
2018-12-29T07:06:48.944Z,2.05
2018-12-29T07:09:20.954Z,2.02
2018-12-29T07:11:52.930Z,1.95
2018-12-29T07:14:24.195Z,1.75
2018-12-29T07:16:56.240Z,2.00
2018-12-29T07:19:28.077Z,2.10
2018-12-29T07:21:59.417Z,2.42
2018-12-29T07:24:31.037Z,2.80
2018-12-29T07:27:02.325Z,3.17
2018-12-29T07:29:38.192Z,2.90
2018-12-29T07:32:07.183Z,2.80
2018-12-29T07:34:38.265Z,2.52
2018-12-29T07:37:09.823Z,2.42
2018-12-29T07:39:41.736Z,2.58
2018-12-29T07:42:13.041Z,3.20
2018-12-29T07:44:44.586Z,3.35
2018-12-29T07:47:16.477Z,3.75
2018-12-29T07:49:48.296Z,4.53
2018-12-29T07:52:21.018Z,3.55
2018-12-29T07:54:52.344Z,3.65
2018-12-29T07:57:23.911Z,3.60
2018-12-29T07:59:55.255Z,3.10
2018-12-29T08:02:26.871Z,2.83
2018-12-29T08:04:58.115Z,2.90
2018-12-29T08:07:29.987Z,3.47
2018-12-29T08:10:01.347Z,3.30
2018-12-29T08:12:32.924Z,2.90
2018-12-29T08:15:04.345Z,3.12
2018-12-29T08:17:35.688Z,3.20
2018-12-29T08:20:06.900Z,2.90
2018-12-29T08:22:38.875Z,2.90
2018-12-29T08:25:10.446Z,2.95
2018-12-29T08:27:42.340Z,3.52
2018-12-29T08:30:14.607Z,2.80
2018-12-29T08:32:46.800Z,3.30
2018-12-29T08:35:18.639Z,2.70
2018-12-29T08:37:50.027Z,2.80
2018-12-29T08:40:21.916Z,3.75
2018-12-29T08:42:53.141Z,4.03
2018-12-29T08:45:24.785Z,3.52
2018-12-29T08:47:56.701Z,3.05
2018-12-29T08:50:28.409Z,2.90
2018-12-29T08:52:59.868Z,3.12
2018-12-29T08:55:31.775Z,5.83
2018-12-29T08:58:03.077Z,4.67
2018-12-29T09:00:34.682Z,2.98
2018-12-29T09:03:06.541Z,3.15
2018-12-29T09:05:38.179Z,3.10
2018-12-29T09:08:09.508Z,2.72
2018-12-29T09:10:41.038Z,2.77
2018-12-29T09:13:12.804Z,3.50
2018-12-29T09:15:44.639Z,3.52
2018-12-29T09:18:16.387Z,2.75
2018-12-29T09:20:47.687Z,3.00
2018-12-29T09:23:19.252Z,2.90
2018-12-29T09:25:51.217Z,2.70
2018-12-29T09:28:23.741Z,2.60
2018-12-29T09:30:55.644Z,2.67
2018-12-29T09:33:27.671Z,2.25
2018-12-29T09:35:59.346Z,2.10
2018-12-29T09:38:31.248Z,2.10
2018-12-29T09:41:03.159Z,2.13
2018-12-29T09:43:35.046Z,1.77
2018-12-29T09:46:07.303Z,4.57
2018-12-29T09:48:39.199Z,3.93
2018-12-29T09:51:10.796Z,2.17
2018-12-29T09:53:42.382Z,2.03
2018-12-29T09:56:14.725Z,2.40
2018-12-29T09:58:46.843Z,2.07
2018-12-29T10:01:18.714Z,2.10
2018-12-29T10:03:49.987Z,2.10
2018-12-29T10:06:21.541Z,2.07
2018-12-29T10:08:53.193Z,1.80
2018-12-29T10:11:24.721Z,1.63
2018-12-29T10:13:56.339Z,1.67
2018-12-29T10:16:27.911Z,1.90
2018-12-29T10:18:59.142Z,1.63
2018-12-29T10:21:31.269Z,2.20
2018-12-29T10:24:03.163Z,1.80
2018-12-29T10:26:35.060Z,2.00
2018-12-29T10:29:06.781Z,1.70
2018-12-29T10:31:38.406Z,1.70
2018-12-29T10:34:10.255Z,2.10
2018-12-29T10:36:42.603Z,2.27
2018-12-29T10:39:14.167Z,1.80
2018-12-29T10:41:45.869Z,2.30
2018-12-29T10:44:17.734Z,2.00
2018-12-29T10:46:49.386Z,2.20
2018-12-29T10:49:20.695Z,2.30
2018-12-29T10:51:52.461Z,2.13
2018-12-29T10:54:23.689Z,2.10
2018-12-29T10:56:55.820Z,2.87
2018-12-29T10:59:26.820Z,2.90
2018-12-29T11:01:58.735Z,2.77
2018-12-29T11:04:30.656Z,3.00
2018-12-29T11:07:02.731Z,3.03
2018-12-29T11:09:34.888Z,3.10
2018-12-29T11:12:06.553Z,3.20
2018-12-29T11:14:38.374Z,3.20
2018-12-29T11:17:09.421Z,3.40
2018-12-29T11:19:41.363Z,3.10
2018-12-29T11:22:12.930Z,3.27
2018-12-29T11:24:44.481Z,2.67
2018-12-29T11:27:15.864Z,2.83
2018-12-29T11:29:47.724Z,3.80
2018-12-29T11:32:18.729Z,3.87
2018-12-29T11:34:50.529Z,4.30
2018-12-29T11:37:22.380Z,3.47
2018-12-29T11:39:54.338Z,4.33
2018-12-29T11:42:26.193Z,4.60
2018-12-29T11:44:58.212Z,3.67
2018-12-29T11:47:29.815Z,4.43
2018-12-29T11:50:01.441Z,4.33
2018-12-29T11:52:33.351Z,4.40
2018-12-29T11:55:05.543Z,4.92
2018-12-29T11:57:37.343Z,5.03
2018-12-29T12:00:10.403Z,4.97
2018-12-29T12:02:42.268Z,5.42
2018-12-29T12:05:14.095Z,6.03
2018-12-29T12:07:45.707Z,5.55
2018-12-29T12:10:17.672Z,5.25
2018-12-29T12:12:49.678Z,6.10
2018-12-29T12:15:20.678Z,5.40
2018-12-29T12:18:06.416Z,5.55
2018-12-29T12:20:26.346Z,6.22
2018-12-29T12:22:57.369Z,5.62
2018-12-29T12:25:28.901Z,5.25
2018-12-29T12:28:00.864Z,5.03
2018-12-29T12:30:32.414Z,5.65
2018-12-29T12:33:03.978Z,5.10
2018-12-29T12:35:35.926Z,5.70
2018-12-29T12:38:07.294Z,5.53
2018-12-29T12:40:38.871Z,5.67
2018-12-29T12:43:10.213Z,5.35
2018-12-29T12:45:42.405Z,5.95
2018-12-29T12:48:14.143Z,5.60
2018-12-29T12:50:46.469Z,5.92
2018-12-29T12:53:18.689Z,5.47
2018-12-29T12:55:50.313Z,6.42
2018-12-29T12:58:23.629Z,6.10
2018-12-29T13:00:55.918Z,6.03
2018-12-29T13:03:27.969Z,5.90
2018-12-29T13:05:59.756Z,5.90
2018-12-29T13:08:31.361Z,6.30
2018-12-29T13:11:02.991Z,5.67
2018-12-29T13:13:35.086Z,6.05
2018-12-29T13:16:06.851Z,5.53
2018-12-29T13:18:38.191Z,5.85
2018-12-29T13:21:09.753Z,5.72
2018-12-29T13:23:41.417Z,6.10
2018-12-29T13:26:13.714Z,5.95
2018-12-29T13:28:45.291Z,7.62
2018-12-29T13:31:17.419Z,6.03
2018-12-29T13:33:48.431Z,6.65
2018-12-29T13:36:20.743Z,6.50
2018-12-29T13:38:52.310Z,6.28
2018-12-29T13:41:24.059Z,6.30
2018-12-29T13:43:55.301Z,6.83
2018-12-29T13:46:26.801Z,7.05
2018-12-29T13:48:58.139Z,7.70
2018-12-29T13:51:29.461Z,7.47
2018-12-29T13:54:00.850Z,7.47
2018-12-29T13:56:32.498Z,7.33
2018-12-29T13:59:03.586Z,7.53
2018-12-29T14:01:35.440Z,7.37
2018-12-29T14:04:07.029Z,7.22
2018-12-29T14:06:39.069Z,7.25
2018-12-29T14:09:10.379Z,7.33
2018-12-29T14:11:41.409Z,6.95
2018-12-29T14:14:12.418Z,6.60
2018-12-29T14:16:44.095Z,6.97
2018-12-29T14:19:15.985Z,7.42
2018-12-29T14:21:47.567Z,7.05
2018-12-29T14:24:19.159Z,7.70
2018-12-29T14:26:51.469Z,8.20
2018-12-29T14:29:23.031Z,7.47
2018-12-29T14:31:54.886Z,7.00
2018-12-29T14:34:27.115Z,7.55
2018-12-29T14:36:58.722Z,6.58
2018-12-29T14:39:30.004Z,7.83
2018-12-29T14:42:01.820Z,8.38
2018-12-29T14:44:33.432Z,6.90
2018-12-29T14:47:05.031Z,7.35
2018-12-29T14:49:36.710Z,7.50
2018-12-29T14:52:08.287Z,7.33
2018-12-29T14:54:39.587Z,8.28
2018-12-29T14:57:11.192Z,7.58
2018-12-29T14:59:42.821Z,7.87
2018-12-29T15:02:14.452Z,6.37
2018-12-29T15:04:46.234Z,6.85
2018-12-29T15:07:18.937Z,7.90
2018-12-29T15:09:51.044Z,7.12
2018-12-29T15:12:22.895Z,7.12
2018-12-29T15:14:56.061Z,6.80
2018-12-29T15:17:28.208Z,7.35
2018-12-29T15:19:59.208Z,6.95
2018-12-29T15:22:30.528Z,9.78
2018-12-29T15:25:02.447Z,8.75
2018-12-29T15:27:34.270Z,7.35
2018-12-29T15:30:06.085Z,7.60
2018-12-29T15:32:37.630Z,7.60
2018-12-29T15:35:09.510Z,6.40
2018-12-29T15:37:41.105Z,6.70
2018-12-29T15:40:12.921Z,6.65
2018-12-29T15:42:45.100Z,6.45
2018-12-29T15:45:17.235Z,6.85
2018-12-29T15:47:49.073Z,7.05
2018-12-29T15:50:20.694Z,7.00
2018-12-29T15:52:52.729Z,6.83
2018-12-29T15:55:23.741Z,7.42
2018-12-29T15:57:55.484Z,7.67
2018-12-29T16:00:27.731Z,17.67
2018-12-29T16:02:59.973Z,7.83
2018-12-29T16:05:32.035Z,7.75
2018-12-29T16:08:03.867Z,7.30
2018-12-29T16:10:35.682Z,7.53
2018-12-29T16:13:07.184Z,8.00
2018-12-29T16:15:38.809Z,7.90
2018-12-29T16:18:10.696Z,10.28
2018-12-29T16:20:42.921Z,8.80
2018-12-29T16:23:14.741Z,6.70
2018-12-29T16:25:46.261Z,6.72
2018-12-29T16:28:17.898Z,8.25
2018-12-29T16:30:49.577Z,7.22
2018-12-29T16:33:22.429Z,8.00
2018-12-29T16:35:54.288Z,8.60
2018-12-29T16:38:26.000Z,8.25
2018-12-29T16:40:58.205Z,9.40
2018-12-29T16:43:29.993Z,8.20
2018-12-29T16:46:01.799Z,9.05
2018-12-29T16:48:33.385Z,7.70
2018-12-29T16:51:05.681Z,6.40
2018-12-29T16:53:37.644Z,5.60
2018-12-29T16:56:08.888Z,6.35
2018-12-29T16:58:40.644Z,6.87
2018-12-29T17:01:12.724Z,7.05
2018-12-29T17:03:44.322Z,6.40
2018-12-29T17:06:16.042Z,6.85
2018-12-29T17:08:47.680Z,6.28
2018-12-29T17:11:19.029Z,7.00
2018-12-29T17:13:51.095Z,6.55
2018-12-29T17:16:22.471Z,5.87
2018-12-29T17:18:53.811Z,6.10
2018-12-29T17:21:24.809Z,5.50
2018-12-29T17:23:56.275Z,5.40
2018-12-29T17:26:27.578Z,5.00
2018-12-29T17:28:59.490Z,4.20
2018-12-29T17:31:30.931Z,3.45
2018-12-29T17:34:02.360Z,3.52
2018-12-29T17:36:41.726Z,3.40
2018-12-29T17:39:08.517Z,3.00
2018-12-29T17:41:40.065Z,2.30
2018-12-29T17:44:11.621Z,2.80
2018-12-29T17:46:43.186Z,3.15
2018-12-29T17:49:22.507Z,2.30
2018-12-29T17:51:47.895Z,1.90
2018-12-29T17:54:19.470Z,2.10
2018-12-29T17:56:51.161Z,2.12
2018-12-29T17:59:22.540Z,1.85
2018-12-29T18:01:54.366Z,2.17
2018-12-29T18:04:25.356Z,2.27
2018-12-29T18:06:56.665Z,1.87
2018-12-29T18:09:28.315Z,2.00
2018-12-29T18:12:00.281Z,2.12
2018-12-29T18:14:32.618Z,2.00
2018-12-29T18:17:04.514Z,1.90
2018-12-29T18:19:36.164Z,2.33
2018-12-29T18:22:08.208Z,2.30
2018-12-29T18:24:39.707Z,2.40
2018-12-29T18:27:12.466Z,2.20
2018-12-29T18:29:45.575Z,2.20
2018-12-29T18:32:17.159Z,1.85
2018-12-29T18:34:48.744Z,1.55
2018-12-29T18:37:20.307Z,1.60
2018-12-29T18:39:52.244Z,1.55
2018-12-29T18:42:23.503Z,1.65
2018-12-29T18:44:55.058Z,1.52
2018-12-29T18:47:27.171Z,2.12
2018-12-29T18:50:00.201Z,1.82
2018-12-29T18:52:31.983Z,1.85
2018-12-29T18:55:04.235Z,1.47
2018-12-29T18:57:35.789Z,1.50
2018-12-29T19:00:07.665Z,1.87
2018-12-29T19:02:39.742Z,1.60
2018-12-29T19:05:11.416Z,2.00
2018-12-29T19:07:43.131Z,2.42
2018-12-29T19:10:15.652Z,2.27
2018-12-29T19:12:47.458Z,2.05
2018-12-29T19:15:19.119Z,1.95
2018-12-29T19:17:50.970Z,2.35
2018-12-29T19:20:23.118Z,2.80
2018-12-29T19:22:55.313Z,2.12
2018-12-29T19:25:26.966Z,2.60
2018-12-29T19:27:58.824Z,2.20
2018-12-29T19:30:31.044Z,2.20
2018-12-29T19:33:03.178Z,1.52
2018-12-29T19:35:35.437Z,1.72
2018-12-29T19:38:07.522Z,1.60
2018-12-29T19:40:38.919Z,1.62
2018-12-29T19:43:11.102Z,1.50
2018-12-29T19:45:42.608Z,1.15
2018-12-29T19:48:13.859Z,1.30
2018-12-29T19:50:45.383Z,1.40
2018-12-29T19:53:17.612Z,1.37
2018-12-29T19:55:49.442Z,1.40
2018-12-29T19:58:21.069Z,1.07
2018-12-29T20:00:52.891Z,1.32
2018-12-29T20:03:24.700Z,1.32
2018-12-29T20:05:57.183Z,1.75
2018-12-29T20:08:29.048Z,1.40
2018-12-29T20:11:00.302Z,1.72
2018-12-29T20:13:32.402Z,1.75
2018-12-29T20:16:04.366Z,1.22
2018-12-29T20:18:36.457Z,1.22
2018-12-29T20:21:07.935Z,1.22
2018-12-29T20:23:39.209Z,1.15
2018-12-29T20:26:11.430Z,1.05
2018-12-29T20:28:43.204Z,0.85
2018-12-29T20:31:14.939Z,1.15
2018-12-29T20:33:46.248Z,1.17
2018-12-29T20:36:17.895Z,0.93
2018-12-29T20:38:48.887Z,1.00
2018-12-29T20:41:20.570Z,1.30
2018-12-29T20:43:52.416Z,1.20
2018-12-29T20:46:23.970Z,1.30
2018-12-29T20:48:55.559Z,1.40
2018-12-29T20:51:27.191Z,1.60
2018-12-29T20:53:58.770Z,1.12
2018-12-29T20:56:30.423Z,1.10
2018-12-29T20:59:02.079Z,1.10
2018-12-29T21:01:33.566Z,1.30
2018-12-29T21:04:05.789Z,1.20
2018-12-29T21:06:37.965Z,1.07
2018-12-29T21:09:09.619Z,1.02
2018-12-29T21:11:41.011Z,1.45
2018-12-29T21:14:12.787Z,3.75
2018-12-29T21:16:44.377Z,2.55
2018-12-29T21:19:16.388Z,2.00
2018-12-29T21:21:48.911Z,1.45
2018-12-29T21:24:20.636Z,1.70
2018-12-29T21:26:52.733Z,1.50
2018-12-29T21:29:24.242Z,1.77
2018-12-29T21:31:56.566Z,1.42
2018-12-29T21:34:28.382Z,1.60
2018-12-29T21:37:01.014Z,1.75
2018-12-29T21:39:34.320Z,1.72
2018-12-29T21:42:07.132Z,1.98
2018-12-29T21:44:40.043Z,2.25
2018-12-29T21:47:11.892Z,2.40
2018-12-29T21:49:43.634Z,2.70
2018-12-29T21:52:14.913Z,2.62
2018-12-29T21:54:46.535Z,2.52
2018-12-29T21:57:17.814Z,3.17
2018-12-29T21:59:49.644Z,2.87
2018-12-29T22:02:21.634Z,3.50
2018-12-29T22:04:53.651Z,2.27
2018-12-29T22:07:24.649Z,2.35
2018-12-29T22:09:56.583Z,2.33
2018-12-29T22:12:28.235Z,2.17
2018-12-29T22:15:00.352Z,1.90
2018-12-29T22:17:32.042Z,2.20
2018-12-29T22:20:03.697Z,1.65
2018-12-29T22:22:35.801Z,1.80
2018-12-29T22:25:06.963Z,1.60
2018-12-29T22:27:37.973Z,1.98
2018-12-29T22:30:09.853Z,1.90
2018-12-29T22:32:41.583Z,1.70
2018-12-29T22:35:13.364Z,2.15
2018-12-29T22:37:44.899Z,2.30
2018-12-29T22:40:16.766Z,2.17
2018-12-29T22:42:48.474Z,1.92
2018-12-29T22:45:20.044Z,1.70
2018-12-29T22:47:51.953Z,2.10
2018-12-29T22:50:23.224Z,2.22
2018-12-29T22:52:54.812Z,1.45
2018-12-29T22:55:26.391Z,1.10
2018-12-29T22:57:57.717Z,1.15
2018-12-29T23:00:42.785Z,0.80
2018-12-29T23:03:16.092Z,0.50
2018-12-29T23:05:48.034Z,0.60
2018-12-29T23:08:19.300Z,0.62
2018-12-29T23:10:50.853Z,0.80
2018-12-29T23:13:22.616Z,0.70
2018-12-29T23:15:53.619Z,0.53
2018-12-29T23:18:25.181Z,0.62
2018-12-29T23:20:56.510Z,0.50
2018-12-29T23:23:27.533Z,0.60
2018-12-29T23:26:00.155Z,0.42
2018-12-29T23:28:31.696Z,0.37
2018-12-29T23:31:03.581Z,0.40
2018-12-29T23:33:35.308Z,0.30
2018-12-29T23:36:06.950Z,0.40
2018-12-29T23:38:38.684Z,0.23
2018-12-29T23:41:09.995Z,0.20
2018-12-29T23:43:42.303Z,0.42
2018-12-29T23:46:13.978Z,0.30
2018-12-29T23:48:44.988Z,0.35
2018-12-29T23:51:16.264Z,0.20
2018-12-29T23:53:47.755Z,0.20
2018-12-29T23:56:19.925Z,0.20
2018-12-29T23:58:51.242Z,0.20
